sensor_id;sensor_type;location;lat;lon;timestamp;pressure;altitude;pressure_sealevel;temperature;humidity
8398;BME280;4236;54.504;9.588;2023-06-10T00:01:08;102077.81;;;14.01;100.00
8398;BME280;4236;54.504;9.588;2023-06-10T00:03:36;102074.31;;;14.01;100.00
8398;BME280;4236;54.504;9.588;2023-06-10T00:06:04;102081.53;;;14.00;100.00
8398;BME280;4236;54.504;9.588;2023-06-10T00:08:32;102076.81;;;14.02;100.00
8398;BME280;4236;54.504;9.588;2023-06-10T00:10:59;102085.22;;;13.99;100.00
8398;BME280;4236;54.504;9.588;2023-06-10T00:13:29;102099.38;;;13.93;100.00
8398;BME280;4236;54.504;9.588;2023-06-10T00:15:56;102078.56;;;13.95;100.00
8398;BME280;4236;54.504;9.588;2023-06-10T00:18:24;102081.59;;;13.92;100.00
8398;BME280;4236;54.504;9.588;2023-06-10T00:20:53;102082.44;;;13.93;100.00
8398;BME280;4236;54.504;9.588;2023-06-10T00:23:21;102084.28;;;13.92;100.00
8398;BME280;4236;54.504;9.588;2023-06-10T00:25:51;102080.50;;;13.86;100.00
8398;BME280;4236;54.504;9.588;2023-06-10T00:28:18;102077.56;;;13.81;100.00
8398;BME280;4236;54.504;9.588;2023-06-10T00:30:48;102081.91;;;13.82;100.00
8398;BME280;4236;54.504;9.588;2023-06-10T00:33:16;102079.03;;;13.84;100.00
8398;BME280;4236;54.504;9.588;2023-06-10T00:35:43;102072.00;;;13.83;100.00
8398;BME280;4236;54.504;9.588;2023-06-10T00:38:13;102082.09;;;13.81;100.00
8398;BME280;4236;54.504;9.588;2023-06-10T00:40:41;102082.44;;;13.78;100.00
8398;BME280;4236;54.504;9.588;2023-06-10T00:43:09;102073.41;;;13.79;100.00
8398;BME280;4236;54.504;9.588;2023-06-10T00:45:37;102072.56;;;13.78;100.00
8398;BME280;4236;54.504;9.588;2023-06-10T00:48:06;102069.03;;;13.78;100.00
8398;BME280;4236;54.504;9.588;2023-06-10T00:50:34;102072.56;;;13.78;100.00
8398;BME280;4236;54.504;9.588;2023-06-10T00:53:05;102075.25;;;13.78;100.00
8398;BME280;4236;54.504;9.588;2023-06-10T00:55:34;102071.94;;;13.76;100.00
8398;BME280;4236;54.504;9.588;2023-06-10T00:58:03;102066.56;;;13.76;100.00
8398;BME280;4236;54.504;9.588;2023-06-10T01:00:31;102080.59;;;13.78;100.00
8398;BME280;4236;54.504;9.588;2023-06-10T01:02:59;102067.56;;;13.75;100.00
8398;BME280;4236;54.504;9.588;2023-06-10T01:05:28;102080.13;;;13.75;100.00
8398;BME280;4236;54.504;9.588;2023-06-10T01:08:03;102068.41;;;13.76;100.00
8398;BME280;4236;54.504;9.588;2023-06-10T01:10:36;102073.09;;;13.74;100.00
8398;BME280;4236;54.504;9.588;2023-06-10T01:13:06;102074.31;;;13.71;100.00
8398;BME280;4236;54.504;9.588;2023-06-10T01:15:38;102072.66;;;13.70;100.00
8398;BME280;4236;54.504;9.588;2023-06-10T01:18:07;102065.00;;;13.67;100.00
8398;BME280;4236;54.504;9.588;2023-06-10T01:20:38;102077.19;;;13.70;100.00
8398;BME280;4236;54.504;9.588;2023-06-10T01:23:09;102079.19;;;13.68;100.00
8398;BME280;4236;54.504;9.588;2023-06-10T01:25:38;102076.91;;;13.65;100.00
8398;BME280;4236;54.504;9.588;2023-06-10T01:28:11;102066.72;;;13.60;100.00
8398;BME280;4236;54.504;9.588;2023-06-10T01:30:44;102075.63;;;13.61;100.00
8398;BME280;4236;54.504;9.588;2023-06-10T01:33:17;102065.34;;;13.64;100.00
8398;BME280;4236;54.504;9.588;2023-06-10T01:35:47;102067.56;;;13.61;100.00
8398;BME280;4236;54.504;9.588;2023-06-10T01:38:19;102063.06;;;13.61;100.00
8398;BME280;4236;54.504;9.588;2023-06-10T01:40:48;102064.88;;;13.61;100.00
8398;BME280;4236;54.504;9.588;2023-06-10T01:43:16;102064.69;;;13.62;100.00
8398;BME280;4236;54.504;9.588;2023-06-10T01:45:44;102059.91;;;13.58;100.00
8398;BME280;4236;54.504;9.588;2023-06-10T01:48:12;102062.56;;;13.58;100.00
8398;BME280;4236;54.504;9.588;2023-06-10T01:50:40;102060.06;;;13.56;100.00
8398;BME280;4236;54.504;9.588;2023-06-10T01:53:08;102061.56;;;13.59;100.00
8398;BME280;4236;54.504;9.588;2023-06-10T01:55:37;102061.75;;;13.57;100.00
8398;BME280;4236;54.504;9.588;2023-06-10T01:58:04;102059.06;;;13.57;100.00
8398;BME280;4236;54.504;9.588;2023-06-10T02:00:32;102072.66;;;13.56;100.00
8398;BME280;4236;54.504;9.588;2023-06-10T02:03:00;102058.41;;;13.55;100.00
8398;BME280;4236;54.504;9.588;2023-06-10T02:05:28;102063.94;;;13.54;100.00
8398;BME280;4236;54.504;9.588;2023-06-10T02:07:56;102055.75;;;13.55;100.00
8398;BME280;4236;54.504;9.588;2023-06-10T02:10:23;102065.00;;;13.53;100.00
8398;BME280;4236;54.504;9.588;2023-06-10T02:12:52;102061.63;;;13.51;100.00
8398;BME280;4236;54.504;9.588;2023-06-10T02:15:20;102069.88;;;13.49;100.00
8398;BME280;4236;54.504;9.588;2023-06-10T02:17:48;102068.66;;;13.52;100.00
8398;BME280;4236;54.504;9.588;2023-06-10T02:20:17;102054.28;;;13.53;100.00
8398;BME280;4236;54.504;9.588;2023-06-10T02:22:45;102063.59;;;13.57;100.00
8398;BME280;4236;54.504;9.588;2023-06-10T02:25:13;102072.81;;;13.54;100.00
8398;BME280;4236;54.504;9.588;2023-06-10T02:27:41;102070.16;;;13.54;100.00
8398;BME280;4236;54.504;9.588;2023-06-10T02:30:11;102074.88;;;13.52;100.00
8398;BME280;4236;54.504;9.588;2023-06-10T02:32:40;102076.50;;;13.53;100.00
8398;BME280;4236;54.504;9.588;2023-06-10T02:35:08;102049.72;;;13.53;100.00
8398;BME280;4236;54.504;9.588;2023-06-10T02:37:39;102056.75;;;13.54;100.00
8398;BME280;4236;54.504;9.588;2023-06-10T02:40:08;102071.81;;;13.55;100.00
8398;BME280;4236;54.504;9.588;2023-06-10T02:42:36;102067.66;;;13.53;100.00
8398;BME280;4236;54.504;9.588;2023-06-10T02:45:05;102055.91;;;13.54;100.00
8398;BME280;4236;54.504;9.588;2023-06-10T02:47:37;102072.81;;;13.54;100.00
8398;BME280;4236;54.504;9.588;2023-06-10T02:50:05;102061.75;;;13.57;100.00
8398;BME280;4236;54.504;9.588;2023-06-10T02:52:33;102058.06;;;13.58;100.00
8398;BME280;4236;54.504;9.588;2023-06-10T02:55:01;102052.03;;;13.56;100.00
8398;BME280;4236;54.504;9.588;2023-06-10T02:57:28;102055.84;;;13.62;100.00
8398;BME280;4236;54.504;9.588;2023-06-10T02:59:56;102064.53;;;13.64;100.00
8398;BME280;4236;54.504;9.588;2023-06-10T03:02:25;102057.47;;;13.63;100.00
8398;BME280;4236;54.504;9.588;2023-06-10T03:04:56;102062.69;;;13.64;100.00
8398;BME280;4236;54.504;9.588;2023-06-10T03:07:24;102057.59;;;13.69;100.00
8398;BME280;4236;54.504;9.588;2023-06-10T03:09:52;102068.09;;;13.71;100.00
8398;BME280;4236;54.504;9.588;2023-06-10T03:12:20;102068.56;;;13.74;100.00
8398;BME280;4236;54.504;9.588;2023-06-10T03:14:48;102071.09;;;13.76;100.00
8398;BME280;4236;54.504;9.588;2023-06-10T03:17:15;102062.22;;;13.75;100.00
8398;BME280;4236;54.504;9.588;2023-06-10T03:19:43;102065.16;;;13.80;100.00
8398;BME280;4236;54.504;9.588;2023-06-10T03:22:14;102064.16;;;13.81;100.00
8398;BME280;4236;54.504;9.588;2023-06-10T03:24:41;102057.38;;;14.00;100.00
8398;BME280;4236;54.504;9.588;2023-06-10T03:27:10;102059.19;;;14.65;100.00
8398;BME280;4236;54.504;9.588;2023-06-10T03:29:38;102046.38;;;15.09;100.00
8398;BME280;4236;54.504;9.588;2023-06-10T03:32:07;102047.19;;;15.10;100.00
8398;BME280;4236;54.504;9.588;2023-06-10T03:34:34;102047.97;;;15.04;100.00
8398;BME280;4236;54.504;9.588;2023-06-10T03:37:02;102055.09;;;14.90;100.00
8398;BME280;4236;54.504;9.588;2023-06-10T03:39:32;102046.53;;;14.80;100.00
8398;BME280;4236;54.504;9.588;2023-06-10T03:42:00;102043.38;;;14.76;100.00
8398;BME280;4236;54.504;9.588;2023-06-10T03:44:28;102060.53;;;14.75;100.00
8398;BME280;4236;54.504;9.588;2023-06-10T03:46:55;102051.97;;;14.65;100.00
8398;BME280;4236;54.504;9.588;2023-06-10T03:49:24;102055.56;;;14.72;100.00
8398;BME280;4236;54.504;9.588;2023-06-10T03:51:53;102061.72;;;14.73;100.00
8398;BME280;4236;54.504;9.588;2023-06-10T03:54:21;102067.75;;;14.75;100.00
8398;BME280;4236;54.504;9.588;2023-06-10T03:56:50;102068.09;;;14.86;100.00
8398;BME280;4236;54.504;9.588;2023-06-10T03:59:18;102070.84;;;14.93;100.00
8398;BME280;4236;54.504;9.588;2023-06-10T04:01:46;102078.28;;;14.98;100.00
8398;BME280;4236;54.504;9.588;2023-06-10T04:04:14;102061.41;;;15.04;100.00
8398;BME280;4236;54.504;9.588;2023-06-10T04:06:43;102063.91;;;15.05;100.00
8398;BME280;4236;54.504;9.588;2023-06-10T04:09:12;102058.72;;;15.04;100.00
8398;BME280;4236;54.504;9.588;2023-06-10T04:11:40;102055.09;;;15.18;100.00
8398;BME280;4236;54.504;9.588;2023-06-10T04:14:09;102056.22;;;15.30;100.00
8398;BME280;4236;54.504;9.588;2023-06-10T04:16:36;102061.88;;;15.35;100.00
8398;BME280;4236;54.504;9.588;2023-06-10T04:19:05;102068.25;;;15.34;100.00
8398;BME280;4236;54.504;9.588;2023-06-10T04:21:32;102058.28;;;15.28;100.00
8398;BME280;4236;54.504;9.588;2023-06-10T04:24:00;102067.88;;;15.37;100.00
8398;BME280;4236;54.504;9.588;2023-06-10T04:26:28;102065.16;;;15.58;100.00
8398;BME280;4236;54.504;9.588;2023-06-10T04:28:56;102061.50;;;16.80;100.00
8398;BME280;4236;54.504;9.588;2023-06-10T04:31:25;102049.41;;;17.88;100.00
8398;BME280;4236;54.504;9.588;2023-06-10T04:33:53;102042.00;;;18.90;100.00
8398;BME280;4236;54.504;9.588;2023-06-10T04:36:21;102037.66;;;19.57;100.00
8398;BME280;4236;54.504;9.588;2023-06-10T04:38:48;102043.81;;;20.00;100.00
8398;BME280;4236;54.504;9.588;2023-06-10T04:41:18;102047.81;;;20.87;99.62
8398;BME280;4236;54.504;9.588;2023-06-10T04:43:46;102045.31;;;21.38;86.27
8398;BME280;4236;54.504;9.588;2023-06-10T04:46:14;102041.13;;;21.94;83.16
8398;BME280;4236;54.504;9.588;2023-06-10T04:48:43;102044.41;;;21.84;78.41
8398;BME280;4236;54.504;9.588;2023-06-10T04:51:13;102045.66;;;22.45;77.36
8398;BME280;4236;54.504;9.588;2023-06-10T04:53:41;102050.06;;;22.34;71.51
8398;BME280;4236;54.504;9.588;2023-06-10T04:56:09;102047.84;;;22.76;74.31
8398;BME280;4236;54.504;9.588;2023-06-10T04:58:37;102041.50;;;22.71;69.72
8398;BME280;4236;54.504;9.588;2023-06-10T05:01:04;102045.00;;;22.83;67.56
8398;BME280;4236;54.504;9.588;2023-06-10T05:03:32;102036.06;;;23.37;65.34
8398;BME280;4236;54.504;9.588;2023-06-10T05:06:01;102050.53;;;22.88;61.53
8398;BME280;4236;54.504;9.588;2023-06-10T05:08:29;102037.03;;;23.64;59.77
8398;BME280;4236;54.504;9.588;2023-06-10T05:10:57;102039.69;;;23.81;58.57
8398;BME280;4236;54.504;9.588;2023-06-10T05:13:24;102048.75;;;23.87;62.33
8398;BME280;4236;54.504;9.588;2023-06-10T05:15:52;102034.59;;;24.33;57.72
8398;BME280;4236;54.504;9.588;2023-06-10T05:18:20;102036.00;;;24.36;56.58
8398;BME280;4236;54.504;9.588;2023-06-10T05:20:48;102033.97;;;24.26;55.55
8398;BME280;4236;54.504;9.588;2023-06-10T05:23:18;102036.53;;;24.64;54.57
8398;BME280;4236;54.504;9.588;2023-06-10T05:25:46;102042.69;;;24.50;55.53
8398;BME280;4236;54.504;9.588;2023-06-10T05:28:14;102030.69;;;24.51;53.74
8398;BME280;4236;54.504;9.588;2023-06-10T05:30:42;102038.16;;;23.90;56.59
8398;BME280;4236;54.504;9.588;2023-06-10T05:33:10;102045.97;;;23.82;55.32
8398;BME280;4236;54.504;9.588;2023-06-10T05:35:38;102054.31;;;23.53;56.42
8398;BME280;4236;54.504;9.588;2023-06-10T05:38:06;102053.88;;;23.45;56.77
8398;BME280;4236;54.504;9.588;2023-06-10T05:40:35;102059.69;;;23.70;56.30
8398;BME280;4236;54.504;9.588;2023-06-10T05:43:02;102059.34;;;24.27;54.48
8398;BME280;4236;54.504;9.588;2023-06-10T05:45:30;102044.53;;;24.44;54.91
8398;BME280;4236;54.504;9.588;2023-06-10T05:47:58;102054.09;;;24.47;54.29
8398;BME280;4236;54.504;9.588;2023-06-10T05:50:26;102032.72;;;24.60;53.16
8398;BME280;4236;54.504;9.588;2023-06-10T05:52:54;102014.75;;;24.38;54.37
8398;BME280;4236;54.504;9.588;2023-06-10T05:55:22;102032.06;;;24.80;54.51
8398;BME280;4236;54.504;9.588;2023-06-10T05:57:59;102033.03;;;24.64;54.09
8398;BME280;4236;54.504;9.588;2023-06-10T06:00:27;102028.34;;;24.11;55.49
8398;BME280;4236;54.504;9.588;2023-06-10T06:02:55;102027.72;;;25.16;55.15
8398;BME280;4236;54.504;9.588;2023-06-10T06:05:24;102036.88;;;25.37;51.55
8398;BME280;4236;54.504;9.588;2023-06-10T06:07:52;102042.50;;;25.20;51.49
8398;BME280;4236;54.504;9.588;2023-06-10T06:10:19;102029.69;;;24.89;52.12
8398;BME280;4236;54.504;9.588;2023-06-10T06:12:47;102037.47;;;24.75;53.03
8398;BME280;4236;54.504;9.588;2023-06-10T06:15:16;102039.19;;;25.18;53.80
8398;BME280;4236;54.504;9.588;2023-06-10T06:17:44;102038.50;;;24.96;51.09
8398;BME280;4236;54.504;9.588;2023-06-10T06:20:12;102031.06;;;25.65;51.56
8398;BME280;4236;54.504;9.588;2023-06-10T06:22:45;102029.41;;;25.64;51.98
8398;BME280;4236;54.504;9.588;2023-06-10T06:25:14;102043.22;;;25.05;50.94
8398;BME280;4236;54.504;9.588;2023-06-10T06:27:42;102046.81;;;25.11;51.16
8398;BME280;4236;54.504;9.588;2023-06-10T06:30:11;102023.66;;;24.82;51.72
8398;BME280;4236;54.504;9.588;2023-06-10T06:32:40;102052.88;;;24.59;52.54
8398;BME280;4236;54.504;9.588;2023-06-10T06:35:08;102044.28;;;24.46;52.84
8398;BME280;4236;54.504;9.588;2023-06-10T06:37:36;102047.25;;;24.44;53.14
8398;BME280;4236;54.504;9.588;2023-06-10T06:40:05;102048.88;;;24.67;52.81
8398;BME280;4236;54.504;9.588;2023-06-10T06:42:33;102042.16;;;24.53;53.74
8398;BME280;4236;54.504;9.588;2023-06-10T06:45:01;102042.66;;;24.23;53.59
8398;BME280;4236;54.504;9.588;2023-06-10T06:47:29;102043.47;;;24.45;53.32
8398;BME280;4236;54.504;9.588;2023-06-10T06:49:58;102035.38;;;24.82;53.53
8398;BME280;4236;54.504;9.588;2023-06-10T06:52:26;102044.31;;;25.09;52.88
8398;BME280;4236;54.504;9.588;2023-06-10T06:54:54;102044.72;;;25.23;52.66
8398;BME280;4236;54.504;9.588;2023-06-10T06:57:22;102047.88;;;25.47;51.83
8398;BME280;4236;54.504;9.588;2023-06-10T06:59:50;102050.50;;;25.78;50.77
8398;BME280;4236;54.504;9.588;2023-06-10T07:02:18;102053.47;;;26.29;48.61
8398;BME280;4236;54.504;9.588;2023-06-10T07:04:46;102054.53;;;26.18;49.47
8398;BME280;4236;54.504;9.588;2023-06-10T07:07:16;102058.28;;;26.07;49.26
8398;BME280;4236;54.504;9.588;2023-06-10T07:09:44;102053.84;;;25.07;50.75
8398;BME280;4236;54.504;9.588;2023-06-10T07:12:12;102054.38;;;24.02;54.64
8398;BME280;4236;54.504;9.588;2023-06-10T07:14:40;102049.56;;;24.09;54.29
8398;BME280;4236;54.504;9.588;2023-06-10T07:17:07;102054.28;;;24.13;54.20
8398;BME280;4236;54.504;9.588;2023-06-10T07:19:35;102058.16;;;24.71;53.27
8398;BME280;4236;54.504;9.588;2023-06-10T07:22:03;102052.56;;;24.56;54.39
8398;BME280;4236;54.504;9.588;2023-06-10T07:24:32;102059.84;;;24.77;54.35
8398;BME280;4236;54.504;9.588;2023-06-10T07:27:00;102066.16;;;24.51;55.12
8398;BME280;4236;54.504;9.588;2023-06-10T07:29:28;102060.56;;;23.92;56.64
8398;BME280;4236;54.504;9.588;2023-06-10T07:31:56;102084.81;;;23.39;58.75
8398;BME280;4236;54.504;9.588;2023-06-10T07:34:23;102068.81;;;22.64;62.42
8398;BME280;4236;54.504;9.588;2023-06-10T07:36:51;102093.78;;;21.93;69.67
8398;BME280;4236;54.504;9.588;2023-06-10T07:39:19;102076.75;;;22.09;70.14
8398;BME280;4236;54.504;9.588;2023-06-10T07:41:48;102080.16;;;22.44;69.47
8398;BME280;4236;54.504;9.588;2023-06-10T07:44:16;102078.16;;;23.13;66.41
8398;BME280;4236;54.504;9.588;2023-06-10T07:46:44;102085.00;;;22.99;64.08
8398;BME280;4236;54.504;9.588;2023-06-10T07:49:12;102083.66;;;23.35;64.91
8398;BME280;4236;54.504;9.588;2023-06-10T07:51:39;102075.28;;;23.75;63.38
8398;BME280;4236;54.504;9.588;2023-06-10T07:54:07;102095.31;;;23.47;61.11
8398;BME280;4236;54.504;9.588;2023-06-10T07:56:35;102088.47;;;23.44;61.02
8398;BME280;4236;54.504;9.588;2023-06-10T07:59:04;102085.97;;;22.93;63.57
8398;BME280;4236;54.504;9.588;2023-06-10T08:01:32;102086.88;;;23.15;64.92
8398;BME280;4236;54.504;9.588;2023-06-10T08:03:59;102080.28;;;23.61;62.63
8398;BME280;4236;54.504;9.588;2023-06-10T08:06:27;102083.25;;;23.43;62.54
8398;BME280;4236;54.504;9.588;2023-06-10T08:08:55;102083.16;;;23.21;62.93
8398;BME280;4236;54.504;9.588;2023-06-10T08:11:23;102088.50;;;22.66;64.26
8398;BME280;4236;54.504;9.588;2023-06-10T08:13:51;102095.84;;;22.14;66.71
8398;BME280;4236;54.504;9.588;2023-06-10T08:16:20;102097.34;;;21.35;72.22
8398;BME280;4236;54.504;9.588;2023-06-10T08:18:48;102084.50;;;21.01;78.32
8398;BME280;4236;54.504;9.588;2023-06-10T08:21:21;102079.09;;;21.01;79.20
8398;BME280;4236;54.504;9.588;2023-06-10T08:23:52;102082.78;;;21.18;80.61
8398;BME280;4236;54.504;9.588;2023-06-10T08:26:20;102082.19;;;20.63;83.73
8398;BME280;4236;54.504;9.588;2023-06-10T08:28:47;102079.34;;;20.70;83.80
8398;BME280;4236;54.504;9.588;2023-06-10T08:31:15;102075.78;;;20.87;86.77
8398;BME280;4236;54.504;9.588;2023-06-10T08:33:44;102083.44;;;20.90;86.85
8398;BME280;4236;54.504;9.588;2023-06-10T08:36:12;102089.84;;;20.66;87.97
8398;BME280;4236;54.504;9.588;2023-06-10T08:38:40;102074.06;;;20.63;88.59
8398;BME280;4236;54.504;9.588;2023-06-10T08:41:09;102080.78;;;20.72;88.49
8398;BME280;4236;54.504;9.588;2023-06-10T08:43:44;102078.44;;;21.29;85.05
8398;BME280;4236;54.504;9.588;2023-06-10T08:46:14;102082.44;;;21.15;89.65
8398;BME280;4236;54.504;9.588;2023-06-10T08:48:43;102072.19;;;21.17;87.40
8398;BME280;4236;54.504;9.588;2023-06-10T08:51:13;102073.25;;;21.16;86.21
8398;BME280;4236;54.504;9.588;2023-06-10T08:53:49;102086.34;;;21.42;83.73
8398;BME280;4236;54.504;9.588;2023-06-10T08:56:18;102079.66;;;21.03;84.85
8398;BME280;4236;54.504;9.588;2023-06-10T08:58:47;102075.78;;;20.99;86.12
8398;BME280;4236;54.504;9.588;2023-06-10T09:01:15;102084.78;;;20.70;86.12
8398;BME280;4236;54.504;9.588;2023-06-10T09:03:45;102069.25;;;20.47;91.05
8398;BME280;4236;54.504;9.588;2023-06-10T09:06:14;102077.22;;;21.02;90.31
8398;BME280;4236;54.504;9.588;2023-06-10T09:08:42;102104.28;;;20.78;89.23
8398;BME280;4236;54.504;9.588;2023-06-10T09:11:10;102077.28;;;20.83;92.03
8398;BME280;4236;54.504;9.588;2023-06-10T09:13:38;102079.19;;;20.94;90.24
8398;BME280;4236;54.504;9.588;2023-06-10T09:16:06;102077.03;;;20.85;89.04
8398;BME280;4236;54.504;9.588;2023-06-10T09:18:34;102062.69;;;20.96;88.53
8398;BME280;4236;54.504;9.588;2023-06-10T09:21:02;102102.97;;;21.11;91.69
8398;BME280;4236;54.504;9.588;2023-06-10T09:23:32;102069.53;;;20.98;90.22
8398;BME280;4236;54.504;9.588;2023-06-10T09:26:00;102071.25;;;21.11;88.68
8398;BME280;4236;54.504;9.588;2023-06-10T09:28:27;102069.69;;;21.27;87.13
8398;BME280;4236;54.504;9.588;2023-06-10T09:31:02;102076.06;;;21.21;88.26
8398;BME280;4236;54.504;9.588;2023-06-10T09:33:31;102073.03;;;21.17;91.40
8398;BME280;4236;54.504;9.588;2023-06-10T09:36:01;102082.69;;;21.13;92.95
8398;BME280;4236;54.504;9.588;2023-06-10T09:38:31;102075.50;;;20.77;92.59
8398;BME280;4236;54.504;9.588;2023-06-10T09:41:00;102059.09;;;21.14;95.87
8398;BME280;4236;54.504;9.588;2023-06-10T09:43:42;102061.41;;;20.98;93.54
8398;BME280;4236;54.504;9.588;2023-06-10T09:46:15;102059.78;;;21.21;94.99
8398;BME280;4236;54.504;9.588;2023-06-10T09:48:44;102060.63;;;21.21;90.54
8398;BME280;4236;54.504;9.588;2023-06-10T09:51:12;102048.25;;;21.25;85.79
8398;BME280;4236;54.504;9.588;2023-06-10T09:53:42;102061.22;;;21.23;87.19
8398;BME280;4236;54.504;9.588;2023-06-10T09:56:10;102045.53;;;21.25;88.30
8398;BME280;4236;54.504;9.588;2023-06-10T09:58:38;102058.38;;;21.18;88.53
8398;BME280;4236;54.504;9.588;2023-06-10T10:01:11;102054.94;;;21.58;85.02
8398;BME280;4236;54.504;9.588;2023-06-10T10:03:45;102060.63;;;21.68;83.09
8398;BME280;4236;54.504;9.588;2023-06-10T10:06:15;102060.59;;;21.79;81.02
8398;BME280;4236;54.504;9.588;2023-06-10T10:08:46;102066.28;;;21.55;82.24
8398;BME280;4236;54.504;9.588;2023-06-10T10:11:16;102043.63;;;21.61;81.58
8398;BME280;4236;54.504;9.588;2023-06-10T10:13:47;102055.78;;;21.70;83.09
8398;BME280;4236;54.504;9.588;2023-06-10T10:16:16;102064.38;;;21.67;83.81
8398;BME280;4236;54.504;9.588;2023-06-10T10:18:49;102043.63;;;21.49;84.28
8398;BME280;4236;54.504;9.588;2023-06-10T10:21:22;102075.38;;;21.48;87.13
8398;BME280;4236;54.504;9.588;2023-06-10T10:23:59;102065.56;;;21.47;87.57
8398;BME280;4236;54.504;9.588;2023-06-10T10:26:29;102069.59;;;21.45;88.50
8398;BME280;4236;54.504;9.588;2023-06-10T10:29:05;102059.22;;;21.42;91.29
8398;BME280;4236;54.504;9.588;2023-06-10T10:31:35;102056.63;;;21.47;89.62
8398;BME280;4236;54.504;9.588;2023-06-10T10:34:06;102064.75;;;21.70;87.56
8398;BME280;4236;54.504;9.588;2023-06-10T10:36:35;102042.53;;;21.85;85.05
8398;BME280;4236;54.504;9.588;2023-06-10T10:39:05;102077.34;;;21.99;89.56
8398;BME280;4236;54.504;9.588;2023-06-10T10:41:36;102047.59;;;21.93;88.79
8398;BME280;4236;54.504;9.588;2023-06-10T10:44:05;102043.00;;;21.93;86.33
8398;BME280;4236;54.504;9.588;2023-06-10T10:46:42;102037.97;;;22.14;86.20
8398;BME280;4236;54.504;9.588;2023-06-10T10:49:12;102035.84;;;22.16;81.29
8398;BME280;4236;54.504;9.588;2023-06-10T10:51:54;102045.94;;;22.32;82.79
8398;BME280;4236;54.504;9.588;2023-06-10T10:54:30;102051.19;;;22.22;78.58
8398;BME280;4236;54.504;9.588;2023-06-10T10:57:14;102033.31;;;22.26;81.21
8398;BME280;4236;54.504;9.588;2023-06-10T10:59:44;102044.53;;;22.57;75.70
8398;BME280;4236;54.504;9.588;2023-06-10T11:02:15;102039.88;;;22.41;74.78
8398;BME280;4236;54.504;9.588;2023-06-10T11:04:45;102038.75;;;22.54;72.88
8398;BME280;4236;54.504;9.588;2023-06-10T11:07:14;102056.75;;;22.43;74.11
8398;BME280;4236;54.504;9.588;2023-06-10T11:10:00;102053.56;;;22.18;74.09
8398;BME280;4236;54.504;9.588;2023-06-10T11:12:50;102066.31;;;22.18;77.66
8398;BME280;4236;54.504;9.588;2023-06-10T11:15:18;102051.69;;;22.19;77.48
8398;BME280;4236;54.504;9.588;2023-06-10T11:18:12;102046.06;;;22.25;76.62
8398;BME280;4236;54.504;9.588;2023-06-10T11:20:57;102061.41;;;22.31;75.83
8398;BME280;4236;54.504;9.588;2023-06-10T11:23:39;102053.03;;;21.93;76.67
8398;BME280;4236;54.504;9.588;2023-06-10T11:26:13;102064.09;;;22.43;75.83
8398;BME280;4236;54.504;9.588;2023-06-10T11:28:42;102044.78;;;22.28;78.20
8398;BME280;4236;54.504;9.588;2023-06-10T11:31:18;102043.34;;;22.53;75.19
8398;BME280;4236;54.504;9.588;2023-06-10T11:33:48;102054.13;;;22.20;71.27
8398;BME280;4236;54.504;9.588;2023-06-10T11:36:16;102037.84;;;22.20;72.87
8398;BME280;4236;54.504;9.588;2023-06-10T11:38:44;102036.47;;;22.34;75.04
8398;BME280;4236;54.504;9.588;2023-06-10T11:41:15;102037.56;;;22.33;73.09
8398;BME280;4236;54.504;9.588;2023-06-10T11:43:43;102054.56;;;22.29;74.58
8398;BME280;4236;54.504;9.588;2023-06-10T11:46:11;102041.09;;;22.34;77.15
8398;BME280;4236;54.504;9.588;2023-06-10T11:48:39;102036.16;;;22.19;75.42
8398;BME280;4236;54.504;9.588;2023-06-10T11:51:07;102042.63;;;22.30;74.42
8398;BME280;4236;54.504;9.588;2023-06-10T11:53:35;102032.69;;;22.35;77.90
8398;BME280;4236;54.504;9.588;2023-06-10T11:56:03;102032.81;;;22.57;74.89
8398;BME280;4236;54.504;9.588;2023-06-10T11:58:32;102031.31;;;22.78;75.20
8398;BME280;4236;54.504;9.588;2023-06-10T12:01:00;102031.22;;;22.89;71.50
8398;BME280;4236;54.504;9.588;2023-06-10T12:03:35;102038.06;;;22.75;70.24
8398;BME280;4236;54.504;9.588;2023-06-10T12:06:05;102026.56;;;22.56;70.74
8398;BME280;4236;54.504;9.588;2023-06-10T12:08:33;102021.41;;;22.88;70.85
8398;BME280;4236;54.504;9.588;2023-06-10T12:11:02;102022.97;;;22.68;70.55
8398;BME280;4236;54.504;9.588;2023-06-10T12:13:31;102027.91;;;22.71;70.83
8398;BME280;4236;54.504;9.588;2023-06-10T12:16:06;102035.88;;;22.60;71.30
8398;BME280;4236;54.504;9.588;2023-06-10T12:18:34;102030.31;;;22.84;70.12
8398;BME280;4236;54.504;9.588;2023-06-10T12:21:02;102037.25;;;22.91;71.34
8398;BME280;4236;54.504;9.588;2023-06-10T12:23:31;102027.84;;;23.15;70.21
8398;BME280;4236;54.504;9.588;2023-06-10T12:25:59;102023.94;;;23.28;67.74
8398;BME280;4236;54.504;9.588;2023-06-10T12:28:27;102031.66;;;23.14;67.35
8398;BME280;4236;54.504;9.588;2023-06-10T12:31:07;102027.53;;;22.79;67.19
8398;BME280;4236;54.504;9.588;2023-06-10T12:33:35;102021.47;;;22.60;69.02
8398;BME280;4236;54.504;9.588;2023-06-10T12:36:03;102031.72;;;22.41;70.89
8398;BME280;4236;54.504;9.588;2023-06-10T12:38:31;102031.00;;;22.63;71.65
8398;BME280;4236;54.504;9.588;2023-06-10T12:41:01;102019.53;;;22.72;72.79
8398;BME280;4236;54.504;9.588;2023-06-10T12:43:31;102028.44;;;22.39;71.35
8398;BME280;4236;54.504;9.588;2023-06-10T12:46:09;102039.88;;;22.58;71.01
8398;BME280;4236;54.504;9.588;2023-06-10T12:48:49;102024.66;;;22.57;71.10
8398;BME280;4236;54.504;9.588;2023-06-10T12:51:17;102031.50;;;22.59;70.70
8398;BME280;4236;54.504;9.588;2023-06-10T12:53:46;102039.53;;;22.83;68.83
8398;BME280;4236;54.504;9.588;2023-06-10T12:56:13;102036.19;;;22.76;67.75
8398;BME280;4236;54.504;9.588;2023-06-10T12:58:41;102020.09;;;22.91;65.39
8398;BME280;4236;54.504;9.588;2023-06-10T13:01:13;102033.03;;;22.84;64.04
8398;BME280;4236;54.504;9.588;2023-06-10T13:03:41;102039.78;;;22.65;63.14
8398;BME280;4236;54.504;9.588;2023-06-10T13:06:08;102033.47;;;22.64;64.43
8398;BME280;4236;54.504;9.588;2023-06-10T13:08:36;102031.44;;;22.54;64.85
8398;BME280;4236;54.504;9.588;2023-06-10T13:11:04;102032.97;;;22.50;65.17
8398;BME280;4236;54.504;9.588;2023-06-10T13:13:32;102016.84;;;22.60;64.83
8398;BME280;4236;54.504;9.588;2023-06-10T13:15:59;102037.47;;;22.73;65.21
8398;BME280;4236;54.504;9.588;2023-06-10T13:18:29;102031.47;;;22.71;64.29